Nearby METAR Reports

 

EGEO - Oban, United Kingdom
Distance from station: SSW 18mi, 30km
Updated: 22/07/2018 16:50
NOT Current
Nearby showers, Overcast
Nearby showers, Overcast
 Wind from SW
Wind: SW 14 mph , 22 km/h
Temperature: 17°C
Dew Point: 15°C
Humidity: 88%
Barometer: 1014 hPa
Summary: Nearby Showers
Clouds: Overcast
Visibility: 6 miles , 9 km
Cloud details: Few Clouds 396 m
Partly cloudy 610 m
Overcast 823 m
2018/07/22 15:50 EGEO 221550Z 23012KT 9000 VCSH FEW013 SCT020 OVC027 17/15 Q1014
EGPU - Tiree, United Kingdom
Distance from station: WSW 64mi, 103km
Updated: 23/07/2018 08:50
Mist, Mostly cloudy
Mist, Mostly cloudy
 Wind from WSW
Wind: WSW 10 mph , 17 km/h
Temperature: 14°C
Dew Point: 14°C
Humidity: 100%
Barometer: 1012 hPa
Summary: Mist
Clouds: Mostly cloudy
Visibility: 2 miles , 3 km
Cloud details: Partly cloudy 91 m
Mostly cloudy 518 m
2018/07/23 07:50 EGPU 230750Z 25009KT 2600 BR SCT003 BKN017 14/14 Q1012
EGPF - Glasgow, United Kingdom
Distance from station: SSE 66mi, 107km
Updated: 23/07/2018 08:50
Overcast
Overcast
 Wind from SW
Wind: SW 15 mph , 24 km/h
Temperature: 19°C
Dew Point: 17°C
Humidity: 88%
Barometer: 1012 hPa
Clouds: Overcast
Visibility: 6 miles , 10 km
Cloud details: Mostly cloudy 335 m
Overcast 1372 m
2018/07/23 07:50 EGPF 230750Z AUTO 22013KT 9999 BKN011 OVC045 19/17 Q1012
 
EGPE - Inverness, United Kingdom
Distance from station: NE 71mi, 114km
Updated: 23/07/2018 08:50
Partly cloudy
Partly cloudy
 Wind from SW
Wind: SW 14 mph , 22 km/h
Temperature: 20°C
Dew Point: 16°C
Humidity: 78%
Barometer: 1010 hPa
Clouds: Partly cloudy
Visibility: 6 miles , 10 km
Cloud details: Few Clouds 244 m
Partly cloudy 762 m
2018/07/23 07:50 EGPE 230750Z 23012KT 200V270 9999 FEW008 SCT025 20/16 Q1010
EGPI - Islay/Port Ellen, United Kingdom
Distance from station: SSW 81mi, 131km
Updated: 23/07/2018 08:50
Light drizzle, Mist, Mostly cloudy
Light drizzle, Mist, Mostly cloudy
 Wind from NW
Wind: NW 9 mph , 15 km/h
Temperature: 15°C
Dew Point: 15°C
Humidity: 100%
Barometer: 1012 hPa
Summary: Light drizzle, Mist
Clouds: Mostly cloudy
Visibility: 2 miles , 3 km
Cloud details: Mostly cloudy 91 m
Mostly cloudy 457 m
2018/07/23 07:50 EGPI 230750Z 31008KT 3000 -DZ BR BKN003 BKN015 15/15 Q1012
EGPN - Dundee/Riverside, United Kingdom
Distance from station: E 86mi, 138km
Updated: 23/07/2018 08:50
Few Clouds
Few Clouds
 Wind from WSW
Wind: WSW 18 mph , 30 km/h
Temperature: 21°C
Dew Point: 18°C
Humidity: 83%
Barometer: 1011 hPa
Clouds: Few Clouds
Visibility: 6 miles , 10 km
Cloud details: Few Clouds 1219 m
2018/07/23 07:50 EGPN 230750Z 25016KT 9999 FEW040 21/18 Q1011
 
EGPK - Prestwick, United Kingdom
Distance from station: SSE 88mi, 141km
Updated: 23/07/2018 08:50
Mostly cloudy
Mostly cloudy
 Wind from SW
Wind: SW 9 mph , 15 km/h
Temperature: 20°C
Dew Point: 16°C
Humidity: 78%
Barometer: 1013 hPa
Clouds: Mostly cloudy
Visibility: 6 miles , 9 km
Cloud details: Partly cloudy 457 m
Mostly cloudy 762 m
2018/07/23 07:50 EGPK 230750Z 22008KT 9000 SCT015 BKN025 20/16 Q1013
EGPH - Edinburgh, United Kingdom
Distance from station: SE 89mi, 143km
Updated: 23/07/2018 08:50
Partly cloudy
Partly cloudy
 Wind from SW
Wind: SW 16 mph , 26 km/h
Temperature: 21°C
Dew Point: 17°C
Humidity: 78%
Barometer: 1012 hPa
Clouds: Partly cloudy
Visibility: 6 miles , 10 km
Cloud details: Few Clouds 549 m
Partly cloudy 1128 m
2018/07/23 07:50 EGPH 230750Z 23014KT 9999 FEW018 SCT037 21/17 Q1012
EGQK - RAF Kinloss, United Kingdom
Distance from station: NE 90mi, 144km
Updated: 23/07/2018 07:50
Few Clouds
Few Clouds
 Wind from WSW
Wind: WSW 6 mph , 9 km/h
Temperature: 17°C
Dew Point: 16°C
Humidity: 94%
Barometer: 1009 hPa
Clouds: Few Clouds
Visibility: 6 miles , 10 km
Cloud details: Few Clouds 1524 m
2018/07/23 06:50 EGQK 230650Z AUTO 25005KT 9999 FEW050/// 17/16 Q1009 RERA
 
EGEC - Campbeltown, United Kingdom
Distance from station: S 90mi, 145km
Updated: 23/07/2018 08:20
Mostly cloudy
Mostly cloudy
 Wind from N
Wind: N 12 mph , 19 km/h
Temperature: 19°C
Dew Point: 16°C
Humidity: 83%
Barometer: 1012 hPa
Clouds: Mostly cloudy
Visibility: 6 miles , 10 km
Cloud details: Few Clouds 366 m
Mostly cloudy 579 m
2018/07/23 07:20 EGEC 230720Z 36010KT 9999 FEW012 BKN019 19/16 Q1012
EGQA - Tain Range, United Kingdom
Distance from station: NNE 91mi, 146km
Updated: 20/07/2018 10:50
NOT Current
Rain, Overcast
Rain, Overcast
 Wind from S
Wind: S 7 mph , 11 km/h
Summary: Rain
Clouds: Overcast
Visibility: 5 miles , 8 km
Cloud details: Partly cloudy 274 m
Overcast 762 m
2018/07/20 09:50 EGQA 200950Z 19006KT 8000 RA SCT009 OVC025 14/// Q1011 GRN
EGQL - RAF Leuchars, United Kingdom
Distance from station: ESE 93mi, 149km
Updated: 23/07/2018 08:50
Partly cloudy
Partly cloudy
 Wind from WSW
Wind: WSW 17 mph , 28 km/h
Temperature: 22°C
Dew Point: 17°C
Humidity: 73%
Barometer: 1011 hPa
Clouds: Partly cloudy
Visibility: 6 miles , 10 km
Cloud details: Few Clouds 518 m
Partly cloudy 1219 m
2018/07/23 07:50 EGQL 230750Z 25015KT 9999 FEW017 SCT040 22/17 Q1011 BLU
 
EGPL - Benbecula, United Kingdom
Distance from station: WNW 96mi, 154km
Updated: 23/07/2018 08:50
Mostly cloudy
Mostly cloudy
 Wind from W
Wind: W 13 mph , 20 km/h
Temperature: 13°C
Dew Point: 12°C
Humidity: 94%
Barometer: 1011 hPa
Clouds: Mostly cloudy
Visibility: 6 miles , 10 km
Cloud details: Few Clouds 183 m
Partly cloudy 305 m
Mostly cloudy 732 m
2018/07/23 07:50 EGPL 230750Z 26011KT 9999 FEW006 SCT010 BKN024 13/12 Q1011
EGQS - RAF Lossiemouth, United Kingdom
Distance from station: NE 99mi, 160km
Updated: 23/07/2018 08:50
Mostly cloudy
Mostly cloudy
 Wind from W
Wind: W 9 mph , 15 km/h
Temperature: 19°C
Dew Point: 16°C
Humidity: 83%
Barometer: 1009 hPa
Clouds: Mostly cloudy
Visibility: 6 miles , 10 km
Cloud details: Few Clouds 366 m
Mostly cloudy 1524 m
2018/07/23 07:50 EGQS 230750Z 26008KT 9999 FEW012 BKN050 19/16 Q1009 BLU NOSIG
EGPO - Stornoway, United Kingdom
Distance from station: NNW 111mi, 179km
Updated: 23/07/2018 08:50
Mostly cloudy
Mostly cloudy
 Wind from varies
Wind: varies 3 mph , 6 km/h
Temperature: 14°C
Dew Point: 13°C
Humidity: 94%
Barometer: 1010 hPa
Clouds: Mostly cloudy
Visibility: 6 miles , 10 km
Cloud details: Few Clouds 152 m
Partly cloudy 274 m
Mostly cloudy 732 m
2018/07/23 07:50 EGPO 230750Z VRB03KT 9999 FEW005 SCT009 BKN024 14/13 Q1010
 
EGPD - Aberdeen/Dyce, United Kingdom
Distance from station: ENE 118mi, 190km
Updated: 23/07/2018 08:50
Clear
Clear
 Wind from SSW
Wind: SSW 13 mph , 20 km/h
Temperature: 22°C
Dew Point: 15°C
Humidity: 65%
Barometer: 1010 hPa
Clouds: Clear
Visibility: 6 miles , 10 km
2018/07/23 07:50 EGPD 230750Z AUTO 21011KT 9999 NCD 22/15 Q1010 NOSIG
EGAE - Eglinton/Londond, United Kingdom
Distance from station: SSW 138mi, 222km
Updated: 23/07/2018 08:50
Light rain, Mostly cloudy
Light rain, Mostly cloudy
 Wind from W
Wind: W 12 mph , 19 km/h
Temperature: 18°C
Dew Point: 17°C
Humidity: 94%
Barometer: 1012 hPa
Summary: Light rain
Clouds: Mostly cloudy
Visibility: 2 miles , 4 km
Cloud details: Partly cloudy 183 m
Mostly cloudy 305 m
2018/07/23 07:50 EGAE 230750Z 26010KT 4000 -RA SCT006 BKN010 18/17 Q1012
EGPC - Wick, United Kingdom
Distance from station: NNE 144mi, 232km
Updated: 23/07/2018 08:50
Partial fog, Partly cloudy
Partial fog, Partly cloudy
 Wind from S
Wind: S 3 mph , 6 km/h
Temperature: 15°C
Dew Point: 15°C
Humidity: 100%
Barometer: 1009 hPa
Summary: Partial Fog
Clouds: Partly cloudy
Visibility: 6 miles , 10 km
Cloud details: Partly cloudy 61 m
2018/07/23 07:50 EGPC 230750Z 18003KT 9999 1200SE PRFG SCT002 15/15 Q1009

Metar display script from Saratoga-Weather.org